Aviation Digital Data Service (ADDS)

Output produced by METARs form (2141 UTC 16 February 2019)
found at http://www.aviationweather.gov/metar/data/
 
Forecast for: VIDP (INDIRA GANDHI/DE, IN)
Text: TAF VIDP 162000Z 1621/1706 24004KT 0400 FG NSC
Forecast period: 2100 UTC 16 February 2019 to 0000 UTC 17 February 2019
Forecast type: FROM: standard forecast or significant change
Winds: from the WSW (240 degrees) at 5 MPH (4 knots; 2.1 m/s)
Visibility: 0.25 miles (0.40 km)
Ceiling: unknown
Clouds: missing
Weather: FG  (fog)
Text: BECMG 1700/1702 0300 FG FEW100
Forecast period: 0000 to 0500 UTC 17 February 2019
Forecast type: BECOMING: Conditions expected to become as follows by 0200 UTC 17 February 2019
Winds: from the WSW (240 degrees) at 5 MPH (4 knots; 2.1 m/s)
Visibility: 0.19 miles (0.31 km)
Ceiling: at least 12,000 feet AGL
Clouds: few clouds at 10000 feet AGL
Weather: FG  (fog)
Text: BECMG 1705/1706 30006KT 1500 BR
Forecast period: 0500 to 0600 UTC 17 February 2019
Forecast type: BECOMING: Conditions expected to become as follows by 0600 UTC 17 February 2019
Winds: from the WNW (300 degrees) at 7 MPH (6 knots; 3.1 m/s)
Visibility: 0.93 miles (1.50 km)
Ceiling: at least 12,000 feet AGL
Clouds: few clouds at 10000 feet AGL
Weather: BR  (mist)